Norfolk, Virginia
Traffic Map
Current Weather Conditions
Norfolk, Virginia
Clear
Clear
81°
Feels Like: 81°
Wind Chill: 81° Ceiling: Unl
Heat Index: 81° Visibility: 10mi
Dew Point: 59° Wind: 8mph
Humidity: 47% Direction: 30° (NNE)
Pressure: 30.27in Gusts: 0mph
Raw Report DataKORF 241751Z AUTO 03007KT 10SM CLR 27/15 A3027 RMK AO2 SLP251 T02720150 10272 20233 56010
Traffic Incident Summary
Active as of:
Severity:
Category:
InformationThere was an issue retrieving the traffic information for this location. Please try a different location or try again shortly.
Advertisements
Track Severe Weather on mobile